createdAt,value
2022-09-03T00:01:00.961Z,18.33
2022-09-03T00:03:33.162Z,18.30
2022-09-03T00:06:07.460Z,18.25
2022-09-03T00:08:38.972Z,18.20
2022-09-03T00:11:13.346Z,18.15
2022-09-03T00:13:43.784Z,18.10
2022-09-03T00:16:15.039Z,18.05
2022-09-03T00:18:45.719Z,18.02
2022-09-03T00:21:15.131Z,17.97
2022-09-03T00:23:45.622Z,17.95
2022-09-03T00:26:22.965Z,17.93
2022-09-03T00:28:52.458Z,17.94
2022-09-03T00:31:24.434Z,17.93
2022-09-03T00:33:53.756Z,17.93
2022-09-03T00:36:24.570Z,17.91
2022-09-03T00:38:52.239Z,17.90
2022-09-03T00:41:26.480Z,17.90
2022-09-03T00:44:02.011Z,17.89
2022-09-03T00:46:38.466Z,17.86
2022-09-03T00:49:20.977Z,17.84
2022-09-03T00:51:52.667Z,17.81
2022-09-03T00:54:27.121Z,17.77
2022-09-03T00:56:57.259Z,17.74
2022-09-03T00:59:30.921Z,17.70
2022-09-03T01:02:05.983Z,17.66
2022-09-03T01:04:40.001Z,17.62
2022-09-03T01:07:15.874Z,17.58
2022-09-03T01:09:49.069Z,17.55
2022-09-03T01:12:20.174Z,17.52
2022-09-03T01:14:56.280Z,17.49
2022-09-03T01:17:31.216Z,17.46
2022-09-03T01:20:13.697Z,17.42
2022-09-03T01:22:52.969Z,17.40
2022-09-03T01:25:31.200Z,17.38
2022-09-03T01:28:13.533Z,17.36
2022-09-03T01:30:47.256Z,17.34
2022-09-03T01:33:20.760Z,17.33
2022-09-03T01:35:49.489Z,17.30
2022-09-03T01:38:21.949Z,17.27
2022-09-03T01:40:57.608Z,17.23
2022-09-03T01:43:39.220Z,17.22
2022-09-03T01:46:14.067Z,17.21
2022-09-03T01:48:47.130Z,17.18
2022-09-03T01:51:19.540Z,17.16
2022-09-03T01:53:55.468Z,17.12
2022-09-03T01:56:39.030Z,17.10
2022-09-03T01:59:10.657Z,17.09
2022-09-03T02:01:41.173Z,17.11
2022-09-03T02:04:15.393Z,17.11
2022-09-03T02:06:44.660Z,17.12
2022-09-03T02:09:12.238Z,17.11
2022-09-03T02:11:40.181Z,17.08
2022-09-03T02:14:09.644Z,17.08
2022-09-03T02:16:37.313Z,17.07
2022-09-03T02:19:06.851Z,17.04
2022-09-03T02:21:36.928Z,17.04
2022-09-03T02:24:04.919Z,17.03
2022-09-03T02:26:32.520Z,17.02
2022-09-03T02:29:00.681Z,17.02
2022-09-03T02:31:29.934Z,17.00
2022-09-03T02:33:58.532Z,17.00
2022-09-03T02:36:29.120Z,16.98
2022-09-03T02:38:56.655Z,16.97
2022-09-03T02:41:27.312Z,16.96
2022-09-03T02:43:57.946Z,16.96
2022-09-03T02:46:28.766Z,16.97
2022-09-03T02:48:57.660Z,16.94
2022-09-03T02:51:25.187Z,16.93
2022-09-03T02:53:54.466Z,16.90
2022-09-03T02:56:26.854Z,16.87
2022-09-03T02:58:54.504Z,16.84
2022-09-03T03:01:24.089Z,16.80
2022-09-03T03:03:51.887Z,16.77
2022-09-03T03:06:21.448Z,16.74
2022-09-03T03:08:49.799Z,16.72
2022-09-03T03:11:18.385Z,16.69
2022-09-03T03:13:46.629Z,16.67
2022-09-03T03:16:15.080Z,16.65
2022-09-03T03:18:42.679Z,16.65
2022-09-03T03:21:11.447Z,16.63
2022-09-03T03:23:40.673Z,16.62
2022-09-03T03:26:09.486Z,16.61
2022-09-03T03:28:37.402Z,16.61
2022-09-03T03:31:08.719Z,16.60
2022-09-03T03:33:36.612Z,16.58
2022-09-03T03:36:08.023Z,16.57
2022-09-03T03:38:35.727Z,16.56
2022-09-03T03:41:09.105Z,16.53
2022-09-03T03:43:36.629Z,16.51
2022-09-03T03:46:05.298Z,16.48
2022-09-03T03:48:33.028Z,16.45
2022-09-03T03:51:01.605Z,16.42
2022-09-03T03:53:29.169Z,16.42
2022-09-03T03:55:57.104Z,16.42
2022-09-03T03:58:26.321Z,16.41
2022-09-03T04:00:54.165Z,16.39
2022-09-03T04:03:22.049Z,16.39
2022-09-03T04:05:56.563Z,16.38
2022-09-03T04:08:24.369Z,16.36
2022-09-03T04:10:52.004Z,16.33
2022-09-03T04:13:19.560Z,16.32
2022-09-03T04:15:48.442Z,16.29
2022-09-03T04:18:16.045Z,16.26
2022-09-03T04:20:44.181Z,16.25
2022-09-03T04:23:12.710Z,16.22
2022-09-03T04:25:41.841Z,16.19
2022-09-03T04:28:09.362Z,16.17
2022-09-03T04:30:38.269Z,16.14
2022-09-03T04:33:07.367Z,16.13
2022-09-03T04:35:43.983Z,16.10
2022-09-03T04:38:11.513Z,16.07
2022-09-03T04:40:39.257Z,16.03
2022-09-03T04:43:06.795Z,16.01
2022-09-03T04:45:34.458Z,15.98
2022-09-03T04:48:02.760Z,15.95
2022-09-03T04:50:35.533Z,15.93
2022-09-03T04:53:07.800Z,15.89
2022-09-03T04:55:36.298Z,15.87
2022-09-03T04:58:03.936Z,15.83
2022-09-03T05:00:31.914Z,15.81
2022-09-03T05:03:01.215Z,15.80
2022-09-03T05:05:28.860Z,15.79
2022-09-03T05:08:01.765Z,15.79
2022-09-03T05:10:29.297Z,15.78
2022-09-03T05:13:00.538Z,15.76
2022-09-03T05:15:28.156Z,15.75
2022-09-03T05:17:59.150Z,15.74
2022-09-03T05:20:27.905Z,15.73
2022-09-03T05:22:55.553Z,15.73
2022-09-03T05:25:24.542Z,15.72
2022-09-03T05:27:52.071Z,15.73
2022-09-03T05:30:22.741Z,15.75
2022-09-03T05:32:50.255Z,15.75
2022-09-03T05:35:17.866Z,15.76
2022-09-03T05:37:45.555Z,15.78
2022-09-03T05:40:13.098Z,15.80
2022-09-03T05:42:42.020Z,15.81
2022-09-03T05:45:10.865Z,15.82
2022-09-03T05:47:39.541Z,15.84
2022-09-03T05:50:08.737Z,15.87
2022-09-03T05:52:36.716Z,15.89
2022-09-03T05:55:04.540Z,15.93
2022-09-03T05:57:32.362Z,15.97
2022-09-03T06:00:01.562Z,16.01
2022-09-03T06:02:29.320Z,16.06
2022-09-03T06:04:57.687Z,16.11
2022-09-03T06:07:27.249Z,16.17
2022-09-03T06:09:54.778Z,16.23
2022-09-03T06:12:22.415Z,16.28
2022-09-03T06:14:49.968Z,16.33
2022-09-03T06:17:18.873Z,16.37
2022-09-03T06:19:46.401Z,16.40
2022-09-03T06:22:13.984Z,16.43
2022-09-03T06:24:41.563Z,16.47
2022-09-03T06:27:09.111Z,16.52
2022-09-03T06:29:37.023Z,16.56
2022-09-03T06:32:05.001Z,16.61
2022-09-03T06:34:33.969Z,16.66
2022-09-03T06:37:01.710Z,16.72
2022-09-03T06:39:29.473Z,16.79
2022-09-03T06:41:56.992Z,16.86
2022-09-03T06:44:35.335Z,16.95
2022-09-03T06:47:02.885Z,17.04
2022-09-03T06:49:31.896Z,17.17
2022-09-03T06:52:00.788Z,17.32
2022-09-03T06:54:28.401Z,17.52
2022-09-03T06:56:55.973Z,17.79
2022-09-03T06:59:23.590Z,18.16
2022-09-03T07:01:51.254Z,18.56
2022-09-03T07:04:20.386Z,19.03
2022-09-03T07:06:48.148Z,19.37
2022-09-03T07:09:18.959Z,19.72
2022-09-03T07:11:49.693Z,20.10
2022-09-03T07:14:18.555Z,20.59
2022-09-03T07:16:47.014Z,21.01
2022-09-03T07:19:14.737Z,21.31
2022-09-03T07:21:46.746Z,21.52
2022-09-03T07:24:18.542Z,21.65
2022-09-03T07:26:47.029Z,21.88
2022-09-03T07:29:15.921Z,22.28
2022-09-03T07:31:44.470Z,22.73
2022-09-03T07:34:13.315Z,23.12
2022-09-03T07:36:42.938Z,23.38
2022-09-03T07:39:11.674Z,23.52
2022-09-03T07:41:42.699Z,23.54
2022-09-03T07:44:10.446Z,23.60
2022-09-03T07:46:39.723Z,23.83
2022-09-03T07:49:07.518Z,24.02
2022-09-03T07:51:35.998Z,24.22
2022-09-03T07:54:05.643Z,24.39
2022-09-03T07:56:35.109Z,24.79
2022-09-03T07:59:04.786Z,25.27
2022-09-03T08:01:33.736Z,25.56
2022-09-03T08:04:01.794Z,25.83
2022-09-03T08:06:30.870Z,25.99
2022-09-03T08:09:04.557Z,26.00
2022-09-03T08:11:33.292Z,25.97
2022-09-03T08:14:02.716Z,26.16
2022-09-03T08:16:32.376Z,26.47
2022-09-03T08:19:00.520Z,26.70
2022-09-03T08:21:28.352Z,26.52
2022-09-03T08:24:02.402Z,26.49
2022-09-03T08:26:30.950Z,26.41
2022-09-03T08:28:58.692Z,26.42
2022-09-03T08:31:27.922Z,26.63
2022-09-03T08:33:57.869Z,26.89
2022-09-03T08:36:26.881Z,27.19
2022-09-03T08:38:55.858Z,27.18
2022-09-03T08:41:30.195Z,27.02
2022-09-03T08:44:05.783Z,27.19
2022-09-03T08:46:36.844Z,27.47
2022-09-03T08:49:06.504Z,27.45
2022-09-03T08:51:38.519Z,27.59
2022-09-03T08:54:07.268Z,27.91
2022-09-03T08:56:38.099Z,28.06
2022-09-03T08:59:05.876Z,28.23
2022-09-03T09:01:39.224Z,28.41
2022-09-03T09:04:13.659Z,28.38
2022-09-03T09:06:44.083Z,28.48
2022-09-03T09:09:19.429Z,28.45
2022-09-03T09:11:55.343Z,28.48
2022-09-03T09:14:28.060Z,28.30
2022-09-03T09:17:00.791Z,28.22
2022-09-03T09:19:40.586Z,28.23
2022-09-03T09:22:10.149Z,28.35
2022-09-03T09:24:41.218Z,28.61
2022-09-03T09:27:12.817Z,28.88
2022-09-03T09:29:43.000Z,28.81
2022-09-03T09:32:13.615Z,28.69
2022-09-03T09:34:42.573Z,28.78
2022-09-03T09:37:13.204Z,28.83
2022-09-03T09:39:41.004Z,28.79
2022-09-03T09:42:09.585Z,28.82
2022-09-03T09:44:37.591Z,28.87
2022-09-03T09:47:06.738Z,29.03
2022-09-03T09:49:35.601Z,29.41
2022-09-03T09:52:06.140Z,29.78
2022-09-03T09:54:33.682Z,29.96
2022-09-03T09:57:03.649Z,30.10
2022-09-03T09:59:31.794Z,30.18
2022-09-03T10:02:09.189Z,30.21
2022-09-03T10:04:37.690Z,30.10
2022-09-03T10:07:24.243Z,30.07
2022-09-03T10:10:02.375Z,30.24
2022-09-03T10:12:34.771Z,30.27
2022-09-03T10:15:07.530Z,30.44
2022-09-03T10:17:41.880Z,30.32
2022-09-03T10:20:38.918Z,30.27
2022-09-03T10:23:10.904Z,30.58
2022-09-03T10:25:41.509Z,30.65
2022-09-03T10:28:13.282Z,30.57
2022-09-03T10:30:50.185Z,30.50
2022-09-03T10:33:20.198Z,30.61
2022-09-03T10:35:53.191Z,30.84
2022-09-03T10:38:28.442Z,30.72
2022-09-03T10:41:02.557Z,30.61
2022-09-03T10:43:41.816Z,30.12
2022-09-03T10:46:11.676Z,29.82
2022-09-03T10:48:43.122Z,29.81
2022-09-03T10:51:15.221Z,29.96
2022-09-03T10:53:54.466Z,30.08
2022-09-03T10:56:26.079Z,30.15
2022-09-03T10:59:03.765Z,30.08
2022-09-03T11:01:35.551Z,30.34
2022-09-03T11:04:15.220Z,30.45
2022-09-03T11:06:48.314Z,30.54
2022-09-03T11:09:20.124Z,30.54
2022-09-03T11:11:50.537Z,30.50
2022-09-03T11:14:26.133Z,30.52
2022-09-03T11:16:56.496Z,30.58
2022-09-03T11:19:28.264Z,30.40
2022-09-03T11:21:55.976Z,30.23
2022-09-03T11:24:27.701Z,30.17
2022-09-03T11:26:58.976Z,30.28
2022-09-03T11:29:32.374Z,30.01
2022-09-03T11:32:02.416Z,30.00
2022-09-03T11:34:32.909Z,30.02
2022-09-03T11:37:18.663Z,29.87
2022-09-03T11:39:54.639Z,30.03
2022-09-03T11:42:36.032Z,30.18
2022-09-03T11:45:15.240Z,30.21
2022-09-03T11:47:43.882Z,30.33
2022-09-03T11:50:20.668Z,30.26
2022-09-03T11:52:49.143Z,30.05
2022-09-03T11:55:38.378Z,30.03
2022-09-03T11:58:13.329Z,30.25
2022-09-03T12:00:44.525Z,30.26
2022-09-03T12:03:15.883Z,30.13
2022-09-03T12:05:48.189Z,29.84
2022-09-03T12:08:43.560Z,29.74
2022-09-03T12:11:22.024Z,29.60
2022-09-03T12:13:52.428Z,29.51
2022-09-03T12:16:26.407Z,29.17
2022-09-03T12:18:55.492Z,29.30
2022-09-03T12:21:23.109Z,29.32
2022-09-03T12:23:52.804Z,29.28
2022-09-03T12:26:28.019Z,29.10
2022-09-03T12:28:57.217Z,29.12
2022-09-03T12:31:28.113Z,29.01
2022-09-03T12:33:59.006Z,29.08
2022-09-03T12:36:27.081Z,29.08
2022-09-03T12:39:11.417Z,29.07
2022-09-03T12:41:54.738Z,28.91
2022-09-03T12:44:27.010Z,28.95
2022-09-03T12:49:49.390Z,28.93
2022-09-03T12:52:19.336Z,28.83
2022-09-03T12:54:50.760Z,28.71
2022-09-03T12:57:21.723Z,28.68
2022-09-03T12:59:50.520Z,28.78
2022-09-03T13:02:19.829Z,28.83
2022-09-03T13:04:47.958Z,28.87
2022-09-03T13:07:21.232Z,28.90
2022-09-03T13:09:49.369Z,28.82
2022-09-03T13:12:30.217Z,28.72
2022-09-03T13:14:58.917Z,28.66
2022-09-03T13:17:41.566Z,28.64
2022-09-03T13:20:16.083Z,28.51
2022-09-03T13:22:58.635Z,28.50
2022-09-03T13:25:29.736Z,28.52
2022-09-03T13:28:08.767Z,28.54
2022-09-03T13:30:44.271Z,28.53
2022-09-03T13:33:17.617Z,28.42
2022-09-03T13:35:48.519Z,28.44
2022-09-03T13:38:23.960Z,28.53
2022-09-03T13:40:56.494Z,28.61
2022-09-03T13:43:30.930Z,28.67
2022-09-03T13:46:00.324Z,28.70
2022-09-03T13:48:49.389Z,28.70
2022-09-03T13:51:19.627Z,28.69
2022-09-03T13:53:53.357Z,28.65
2022-09-03T13:56:27.385Z,28.69
2022-09-03T13:58:58.303Z,28.71
2022-09-03T14:01:28.370Z,28.64
2022-09-03T14:03:58.032Z,28.59
2022-09-03T14:06:33.081Z,28.61
2022-09-03T14:09:05.441Z,28.61
2022-09-03T14:11:36.110Z,28.56
2022-09-03T14:14:10.462Z,28.63
2022-09-03T14:16:42.165Z,28.70
2022-09-03T14:19:12.377Z,28.73
2022-09-03T14:21:43.720Z,28.74
2022-09-03T14:24:15.159Z,28.68
2022-09-03T14:26:51.128Z,28.59
2022-09-03T14:29:22.029Z,28.49
2022-09-03T14:31:58.898Z,28.43
2022-09-03T14:34:33.526Z,28.38
2022-09-03T14:37:06.042Z,28.35
2022-09-03T14:39:34.836Z,28.14
2022-09-03T14:42:23.805Z,28.04
2022-09-03T14:44:57.419Z,27.97
2022-09-03T14:47:31.050Z,27.94
2022-09-03T14:50:09.959Z,27.87
2022-09-03T14:52:56.964Z,27.84
2022-09-03T14:55:34.353Z,27.85
2022-09-03T14:58:10.897Z,27.89
2022-09-03T15:00:47.219Z,27.86
2022-09-03T15:03:23.067Z,27.79
2022-09-03T15:05:56.279Z,27.77
2022-09-03T15:08:40.295Z,27.82
2022-09-03T15:11:14.596Z,27.75
2022-09-03T15:13:46.187Z,27.73
2022-09-03T15:16:22.539Z,27.70
2022-09-03T15:19:01.780Z,27.69
2022-09-03T15:21:36.064Z,27.66
2022-09-03T15:24:07.295Z,27.71
2022-09-03T15:26:48.214Z,27.74
2022-09-03T15:29:28.112Z,27.72
2022-09-03T15:32:03.564Z,27.69
2022-09-03T15:34:44.563Z,27.65
2022-09-03T15:37:14.506Z,27.66
2022-09-03T15:39:45.230Z,27.71
2022-09-03T15:42:18.390Z,27.75
2022-09-03T15:44:48.816Z,27.73
2022-09-03T15:47:40.061Z,27.68
2022-09-03T15:50:27.323Z,27.62
2022-09-03T15:52:57.476Z,27.64
2022-09-03T15:55:27.503Z,27.63
2022-09-03T15:58:09.414Z,27.58
2022-09-03T16:00:45.051Z,27.58
2022-09-03T16:03:20.434Z,27.53
2022-09-03T16:05:55.325Z,27.48
2022-09-03T16:08:25.621Z,27.43
2022-09-03T16:11:01.680Z,27.42
2022-09-03T16:13:35.939Z,27.38
2022-09-03T16:16:05.129Z,27.33
2022-09-03T16:18:38.256Z,27.30
2022-09-03T16:21:08.632Z,27.20
2022-09-03T16:23:39.223Z,27.13
2022-09-03T16:26:12.034Z,27.08
2022-09-03T16:28:50.240Z,27.02
2022-09-03T16:31:26.221Z,26.96
2022-09-03T16:34:00.039Z,26.90
2022-09-03T16:36:33.772Z,26.86
2022-09-03T16:39:03.994Z,26.84
2022-09-03T16:41:36.167Z,26.77
2022-09-03T16:44:09.986Z,26.71
2022-09-03T16:46:44.387Z,26.62
2022-09-03T16:49:23.391Z,26.53
2022-09-03T16:51:55.014Z,26.43
2022-09-03T16:54:36.988Z,26.35
2022-09-03T16:57:12.814Z,26.25
2022-09-03T16:59:58.390Z,26.16
2022-09-03T17:02:46.602Z,26.03
2022-09-03T17:05:21.761Z,25.91
2022-09-03T17:08:05.025Z,25.83
2022-09-03T17:10:37.258Z,25.74
2022-09-03T17:13:15.131Z,25.65
2022-09-03T17:15:47.193Z,25.55
2022-09-03T17:18:22.848Z,25.45
2022-09-03T17:20:59.642Z,25.38
2022-09-03T17:23:38.100Z,25.27
2022-09-03T17:26:08.389Z,25.19
2022-09-03T17:28:44.504Z,25.09
2022-09-03T17:31:16.986Z,25.00
2022-09-03T17:33:50.998Z,24.91
2022-09-03T17:36:24.371Z,24.82
2022-09-03T17:39:26.325Z,24.73
2022-09-03T17:41:54.762Z,24.63
2022-09-03T17:44:30.819Z,24.53
2022-09-03T17:47:06.808Z,24.44
2022-09-03T17:49:41.993Z,24.31
2022-09-03T17:52:20.879Z,24.21
2022-09-03T17:54:49.762Z,24.12
2022-09-03T17:57:19.911Z,24.04
2022-09-03T17:59:52.623Z,23.97
2022-09-03T18:02:26.697Z,23.87
2022-09-03T18:04:57.157Z,23.78
2022-09-03T18:07:30.543Z,23.68
2022-09-03T18:10:04.976Z,23.59
2022-09-03T18:12:40.098Z,23.50
2022-09-03T18:15:10.739Z,23.41
2022-09-03T18:17:40.267Z,23.33
2022-09-03T18:20:26.629Z,23.24
2022-09-03T18:23:21.145Z,23.16
2022-09-03T18:26:08.841Z,23.07
2022-09-03T18:28:56.586Z,22.97
2022-09-03T18:31:41.897Z,22.89
2022-09-03T18:34:27.621Z,22.81
2022-09-03T18:37:15.724Z,22.74
2022-09-03T18:40:02.997Z,22.64
2022-09-03T18:42:58.206Z,22.57
2022-09-03T18:46:28.069Z,22.49
2022-09-03T18:48:55.172Z,22.40
2022-09-03T18:51:45.528Z,22.32
2022-09-03T18:55:06.638Z,22.25
2022-09-03T18:57:58.346Z,22.15
2022-09-03T19:00:46.058Z,22.07
2022-09-03T19:03:42.453Z,21.97
2022-09-03T19:06:35.906Z,21.90
2022-09-03T19:09:24.773Z,21.84
2022-09-03T19:12:17.556Z,21.76
2022-09-03T19:15:07.713Z,21.69
2022-09-03T19:18:02.107Z,21.62
2022-09-03T19:20:47.863Z,21.56
2022-09-03T19:23:33.045Z,21.50
2022-09-03T19:26:21.840Z,21.45
2022-09-03T19:29:10.135Z,21.39
2022-09-03T19:32:02.211Z,21.34
2022-09-03T19:35:07.799Z,21.29
2022-09-03T19:37:55.631Z,21.22
2022-09-03T19:40:52.399Z,21.18
2022-09-03T19:43:43.975Z,21.12
2022-09-03T19:46:33.799Z,21.07
2022-09-03T19:49:26.854Z,21.01
2022-09-03T19:52:18.488Z,20.97
2022-09-03T19:55:03.848Z,20.92
2022-09-03T19:57:49.629Z,20.89
2022-09-03T20:00:34.944Z,20.83
2022-09-03T20:03:20.727Z,20.78
2022-09-03T20:06:11.064Z,20.72
2022-09-03T20:08:56.303Z,20.67
2022-09-03T20:11:25.477Z,20.63
2022-09-03T20:14:10.655Z,20.59
2022-09-03T20:16:41.541Z,20.56
2022-09-03T20:19:15.072Z,20.51
2022-09-03T20:21:49.417Z,20.45
2022-09-03T20:24:28.172Z,20.39
2022-09-03T20:27:02.181Z,20.34
2022-09-03T20:29:44.964Z,20.29
2022-09-03T20:32:15.475Z,20.25
2022-09-03T20:34:47.897Z,20.21
2022-09-03T20:37:24.749Z,20.17
2022-09-03T20:40:00.283Z,20.13
2022-09-03T20:42:36.106Z,20.09
2022-09-03T20:45:09.696Z,20.03
2022-09-03T20:47:46.130Z,19.97
2022-09-03T20:50:20.706Z,19.92
2022-09-03T20:52:53.250Z,19.87
2022-09-03T20:55:22.338Z,19.83
2022-09-03T20:57:54.053Z,19.80
2022-09-03T21:00:23.182Z,19.76
2022-09-03T21:03:23.982Z,19.73
2022-09-03T21:05:56.174Z,19.69
2022-09-03T21:08:33.033Z,19.67
2022-09-03T21:11:06.282Z,19.63
2022-09-03T21:13:40.227Z,19.60
2022-09-03T21:16:22.827Z,19.58
2022-09-03T21:18:56.289Z,19.57
2022-09-03T21:21:27.287Z,19.56
2022-09-03T21:24:00.069Z,19.53
2022-09-03T21:26:30.344Z,19.50
2022-09-03T21:29:03.345Z,19.47
2022-09-03T21:31:38.439Z,19.44
2022-09-03T21:34:09.624Z,19.40
2022-09-03T21:36:38.219Z,19.37
2022-09-03T21:39:10.469Z,19.34
2022-09-03T21:41:41.488Z,19.31
2022-09-03T21:44:12.896Z,19.26
2022-09-03T21:46:42.531Z,19.24
2022-09-03T21:49:11.256Z,19.20
2022-09-03T21:51:42.494Z,19.19
2022-09-03T21:54:14.593Z,19.16
2022-09-03T21:56:57.010Z,19.14
2022-09-03T21:59:32.269Z,19.11
2022-09-03T22:02:04.414Z,19.09
2022-09-03T22:04:32.068Z,19.06
2022-09-03T22:07:05.205Z,19.03
2022-09-03T22:09:37.586Z,19.01
2022-09-03T22:12:09.690Z,18.98
2022-09-03T22:14:41.567Z,18.96
2022-09-03T22:17:12.372Z,18.92
2022-09-03T22:19:40.219Z,18.89
2022-09-03T22:22:11.108Z,18.86
2022-09-03T22:24:43.538Z,18.84
2022-09-03T22:27:19.212Z,18.80
2022-09-03T22:29:53.052Z,18.75
2022-09-03T22:32:28.009Z,18.72
2022-09-03T22:35:14.714Z,18.68
2022-09-03T22:37:49.726Z,18.64
2022-09-03T22:40:25.156Z,18.61
2022-09-03T22:43:01.805Z,18.57
2022-09-03T22:45:47.143Z,18.55
2022-09-03T22:48:22.133Z,18.50
2022-09-03T22:50:53.574Z,18.47
2022-09-03T22:53:26.897Z,18.44
2022-09-03T22:56:00.434Z,18.40
2022-09-03T22:58:30.741Z,18.37
2022-09-03T23:01:04.010Z,18.33
2022-09-03T23:03:36.977Z,18.30
2022-09-03T23:06:07.021Z,18.27
2022-09-03T23:08:40.183Z,18.24
2022-09-03T23:11:10.893Z,18.21
2022-09-03T23:13:41.788Z,18.18
2022-09-03T23:16:12.507Z,18.14
2022-09-03T23:18:42.489Z,18.11
2022-09-03T23:21:21.373Z,18.08
2022-09-03T23:23:53.944Z,18.05
2022-09-03T23:26:27.992Z,18.01
2022-09-03T23:29:00.074Z,17.97
2022-09-03T23:31:28.240Z,17.94
2022-09-03T23:33:56.127Z,17.89
2022-09-03T23:36:55.009Z,17.87
2022-09-03T23:39:24.538Z,17.85
2022-09-03T23:42:01.043Z,17.82
2022-09-03T23:44:33.817Z,17.79
2022-09-03T23:47:10.566Z,17.75
2022-09-03T23:49:43.036Z,17.71
2022-09-03T23:52:20.748Z,17.69
2022-09-03T23:54:49.634Z,17.66
2022-09-03T23:57:24.539Z,17.64
